createdAt,value
2022-10-29T00:02:17.439Z,6.53
2022-10-29T00:04:44.536Z,7.97
2022-10-29T00:07:11.669Z,8.07
2022-10-29T00:09:40.112Z,7.82
2022-10-29T00:12:07.396Z,8.27
2022-10-29T00:14:35.007Z,7.65
2022-10-29T00:17:02.102Z,7.30
2022-10-29T00:19:29.587Z,8.27
2022-10-29T00:21:56.761Z,7.65
2022-10-29T00:24:24.199Z,7.38
2022-10-29T00:26:51.397Z,7.88
2022-10-29T00:29:18.647Z,7.68
2022-10-29T00:31:45.931Z,8.13
2022-10-29T00:34:14.249Z,7.32
2022-10-29T00:36:41.388Z,7.05
2022-10-29T00:39:08.713Z,7.10
2022-10-29T00:41:35.981Z,7.88
2022-10-29T00:44:15.530Z,6.15
2022-10-29T00:46:43.993Z,7.35
2022-10-29T00:49:12.006Z,7.95
2022-10-29T00:51:39.742Z,6.88
2022-10-29T00:54:10.826Z,6.55
2022-10-29T00:56:40.880Z,6.60
2022-10-29T00:59:08.472Z,6.97
2022-10-29T01:01:35.964Z,6.40
2022-10-29T01:04:04.187Z,6.78
2022-10-29T01:06:31.781Z,6.50
2022-10-29T01:08:58.876Z,6.85
2022-10-29T01:11:30.493Z,6.53
2022-10-29T01:14:22.981Z,6.88
2022-10-29T01:17:02.757Z,6.72
2022-10-29T01:19:32.983Z,8.32
2022-10-29T01:22:20.307Z,8.07
2022-10-29T01:24:55.263Z,7.93
2022-10-29T01:27:25.159Z,8.13
2022-10-29T01:29:59.161Z,7.80
2022-10-29T01:32:35.725Z,8.00
2022-10-29T01:35:03.825Z,7.10
2022-10-29T01:37:34.763Z,6.85
2022-10-29T01:40:07.848Z,6.80
2022-10-29T01:42:40.034Z,7.53
2022-10-29T01:45:26.924Z,6.55
2022-10-29T01:48:00.269Z,8.27
2022-10-29T01:50:27.983Z,6.97
2022-10-29T01:52:56.534Z,7.15
2022-10-29T01:55:30.001Z,7.18
2022-10-29T01:57:57.746Z,7.95
2022-10-29T02:00:25.713Z,7.13
2022-10-29T02:03:01.601Z,7.45
2022-10-29T02:05:33.327Z,7.25
2022-10-29T02:08:13.352Z,7.38
2022-10-29T02:10:47.707Z,8.48
2022-10-29T02:13:17.700Z,7.88
2022-10-29T02:15:48.360Z,9.73
2022-10-29T02:18:16.918Z,10.65
2022-10-29T02:20:45.106Z,12.77
2022-10-29T02:23:12.953Z,14.43
2022-10-29T02:25:40.284Z,15.15
2022-10-29T02:28:07.702Z,13.30
2022-10-29T02:30:35.241Z,11.77
2022-10-29T02:33:02.357Z,10.02
2022-10-29T02:35:29.525Z,9.30
2022-10-29T02:37:57.977Z,8.50
2022-10-29T02:40:26.104Z,8.77
2022-10-29T02:42:55.050Z,8.80
2022-10-29T02:45:22.676Z,9.10
2022-10-29T02:47:50.048Z,8.23
2022-10-29T02:50:17.392Z,8.20
2022-10-29T02:52:44.855Z,7.70
2022-10-29T02:55:12.067Z,7.63
2022-10-29T02:57:40.379Z,8.75
2022-10-29T03:00:07.958Z,8.32
2022-10-29T03:02:35.351Z,7.57
2022-10-29T03:05:02.755Z,8.40
2022-10-29T03:07:30.601Z,8.40
2022-10-29T03:09:58.060Z,8.77
2022-10-29T03:12:25.189Z,9.43
2022-10-29T03:14:52.264Z,9.25
2022-10-29T03:17:19.582Z,8.93
2022-10-29T03:19:46.660Z,9.27
2022-10-29T03:22:14.312Z,9.13
2022-10-29T03:24:41.456Z,8.57
2022-10-29T03:27:09.211Z,9.48
2022-10-29T03:29:36.393Z,9.93
2022-10-29T03:32:03.992Z,10.57
2022-10-29T03:34:31.126Z,10.95
2022-10-29T03:36:58.485Z,10.73
2022-10-29T03:39:25.900Z,10.73
2022-10-29T03:41:53.225Z,9.88
2022-10-29T03:44:20.579Z,8.73
2022-10-29T03:46:47.846Z,9.45
2022-10-29T03:49:15.369Z,9.63
2022-10-29T03:51:42.536Z,9.43
2022-10-29T03:54:09.641Z,9.65
2022-10-29T03:56:36.728Z,9.10
2022-10-29T03:59:07.319Z,9.25
2022-10-29T04:01:35.522Z,9.60
2022-10-29T04:04:03.717Z,9.38
2022-10-29T04:06:32.089Z,9.68
2022-10-29T04:08:59.931Z,9.35
2022-10-29T04:11:27.146Z,10.23
2022-10-29T04:13:55.055Z,10.02
2022-10-29T04:16:22.416Z,10.50
2022-10-29T04:18:50.178Z,10.88
2022-10-29T04:29:40.066Z,11.10
2022-10-29T04:32:07.406Z,11.20
2022-10-29T04:34:40.536Z,11.05
2022-10-29T04:37:08.905Z,11.10
2022-10-29T04:39:36.162Z,10.95
2022-10-29T04:42:03.527Z,12.55
2022-10-29T04:44:30.848Z,11.27
2022-10-29T04:46:58.042Z,12.27
2022-10-29T04:49:26.502Z,11.73
2022-10-29T04:51:53.678Z,11.38
2022-10-29T04:54:21.902Z,11.65
2022-10-29T04:56:48.984Z,12.48
2022-10-29T04:59:18.267Z,12.20
2022-10-29T05:01:45.582Z,13.13
2022-10-29T05:04:13.015Z,14.77
2022-10-29T05:06:40.394Z,15.57
2022-10-29T05:09:07.504Z,14.88
2022-10-29T05:11:34.706Z,16.52
2022-10-29T05:14:02.180Z,19.50
2022-10-29T05:16:29.544Z,16.67
2022-10-29T05:18:56.621Z,17.50
2022-10-29T05:21:24.923Z,16.63
2022-10-29T05:23:52.119Z,17.90
2022-10-29T05:26:19.509Z,20.48
2022-10-29T05:28:49.850Z,21.02
2022-10-29T05:31:18.541Z,20.20
2022-10-29T05:33:45.928Z,19.42
2022-10-29T05:36:13.349Z,21.67
2022-10-29T05:38:40.586Z,18.67
2022-10-29T05:41:08.056Z,18.38
2022-10-29T05:43:35.327Z,17.58
2022-10-29T05:46:05.490Z,16.08
2022-10-29T05:48:32.874Z,17.92
2022-10-29T05:50:59.964Z,18.50
2022-10-29T05:53:28.135Z,18.15
2022-10-29T05:55:59.041Z,18.00
2022-10-29T05:58:29.499Z,20.33
2022-10-29T06:00:56.630Z,18.48
2022-10-29T06:03:24.198Z,18.60
2022-10-29T06:05:51.707Z,19.02
2022-10-29T06:08:19.282Z,19.23
2022-10-29T06:10:47.636Z,17.98
2022-10-29T06:13:16.432Z,19.65
2022-10-29T06:15:43.716Z,17.33
2022-10-29T06:18:12.216Z,18.50
2022-10-29T06:20:40.913Z,18.77
2022-10-29T06:23:08.161Z,17.98
2022-10-29T06:25:35.254Z,20.13
2022-10-29T06:28:03.491Z,17.50
2022-10-29T06:30:31.345Z,17.50
2022-10-29T06:32:58.910Z,20.50
2022-10-29T06:35:26.807Z,21.25
2022-10-29T06:37:54.468Z,21.90
2022-10-29T06:40:21.946Z,22.55
2022-10-29T06:42:49.018Z,24.42
2022-10-29T06:45:17.608Z,24.40
2022-10-29T06:47:45.718Z,26.05
2022-10-29T06:50:14.491Z,25.83
2022-10-29T06:52:41.796Z,25.85
2022-10-29T06:55:09.430Z,26.13
2022-10-29T06:57:37.743Z,24.60
2022-10-29T07:00:08.375Z,24.55
2022-10-29T07:05:09.624Z,21.52
2022-10-29T07:07:36.984Z,22.83
2022-10-29T07:10:04.360Z,21.80
2022-10-29T07:12:44.622Z,23.35
2022-10-29T07:15:12.829Z,23.40
2022-10-29T07:17:40.268Z,22.67
2022-10-29T07:20:08.104Z,23.48
2022-10-29T07:22:35.519Z,23.73
2022-10-29T07:25:06.332Z,22.20
2022-10-29T07:27:33.650Z,22.35
2022-10-29T07:30:00.999Z,22.83
2022-10-29T07:32:29.195Z,24.23
2022-10-29T07:34:56.811Z,24.05
2022-10-29T07:37:23.967Z,21.52
2022-10-29T07:39:51.038Z,23.20
2022-10-29T07:42:19.775Z,23.20
2022-10-29T07:44:46.894Z,23.38
2022-10-29T07:47:15.246Z,25.48
2022-10-29T07:49:42.626Z,24.92
2022-10-29T07:52:11.160Z,25.25
2022-10-29T07:54:38.565Z,24.35
2022-10-29T07:57:05.860Z,23.05
2022-10-29T07:59:34.283Z,23.83
2022-10-29T08:02:03.751Z,23.52
2022-10-29T08:04:30.969Z,22.33
2022-10-29T08:06:58.161Z,21.25
2022-10-29T08:09:25.570Z,22.45
2022-10-29T08:11:52.825Z,22.33
2022-10-29T08:14:22.582Z,21.98
2022-10-29T08:16:54.628Z,21.75
2022-10-29T08:19:30.928Z,21.30
2022-10-29T08:21:59.132Z,19.92
2022-10-29T08:24:26.229Z,19.15
2022-10-29T08:26:53.552Z,19.23
2022-10-29T08:29:21.060Z,18.55
2022-10-29T08:31:50.697Z,15.88
2022-10-29T08:34:18.085Z,15.63
2022-10-29T08:36:45.543Z,14.68
2022-10-29T08:39:16.072Z,13.75
2022-10-29T08:41:46.333Z,14.90
2022-10-29T08:44:20.567Z,15.40
2022-10-29T08:46:50.204Z,14.70
2022-10-29T08:49:36.229Z,14.88
2022-10-29T08:52:25.118Z,14.30
2022-10-29T08:54:59.904Z,14.50
2022-10-29T08:57:29.428Z,14.35
2022-10-29T09:02:40.270Z,13.60
2022-10-29T09:05:13.151Z,14.00
2022-10-29T09:07:52.696Z,13.77
2022-10-29T09:10:30.789Z,14.07
2022-10-29T09:13:08.992Z,13.25
2022-10-29T09:15:40.254Z,13.23
2022-10-29T09:18:26.036Z,13.35
2022-10-29T09:20:53.364Z,14.07
2022-10-29T09:23:20.680Z,12.65
2022-10-29T09:25:56.871Z,12.65
2022-10-29T09:28:26.726Z,12.98
2022-10-29T09:31:02.506Z,13.73
2022-10-29T09:33:30.166Z,13.07
2022-10-29T09:36:00.400Z,13.07
2022-10-29T09:38:32.581Z,12.48
2022-10-29T09:41:01.017Z,13.18
2022-10-29T09:43:28.359Z,11.98
2022-10-29T09:46:05.145Z,11.40
2022-10-29T09:48:46.482Z,10.98
2022-10-29T09:51:25.824Z,11.40
2022-10-29T09:53:53.541Z,11.20
2022-10-29T09:56:20.929Z,10.68
2022-10-29T09:58:52.688Z,10.40
2022-10-29T10:01:19.871Z,9.80
2022-10-29T10:03:49.722Z,9.23
2022-10-29T10:06:17.647Z,8.55
2022-10-29T10:09:01.882Z,9.30
2022-10-29T10:11:35.203Z,9.20
2022-10-29T10:14:05.693Z,9.27
2022-10-29T10:16:33.906Z,8.70
2022-10-29T10:19:01.121Z,8.93
2022-10-29T10:21:32.620Z,8.45
2022-10-29T10:24:00.524Z,8.07
2022-10-29T10:26:34.094Z,7.43
2022-10-29T10:29:15.262Z,7.82
2022-10-29T10:31:43.747Z,7.03
2022-10-29T10:34:11.008Z,7.22
2022-10-29T10:36:40.610Z,7.18
2022-10-29T10:39:16.743Z,7.30
2022-10-29T10:41:45.217Z,7.68
2022-10-29T10:44:13.496Z,7.18
2022-10-29T10:46:42.973Z,6.90
2022-10-29T10:49:15.700Z,6.95
2022-10-29T10:51:49.548Z,7.18
2022-10-29T10:54:34.181Z,7.00
2022-10-29T10:57:02.602Z,7.13
2022-10-29T10:59:52.798Z,7.38
2022-10-29T11:02:26.625Z,7.25
2022-10-29T11:04:59.028Z,7.35
2022-10-29T11:07:31.076Z,6.28
2022-10-29T11:09:58.788Z,6.82
2022-10-29T11:12:31.986Z,7.43
2022-10-29T11:15:05.537Z,5.80
2022-10-29T11:18:02.851Z,5.88
2022-10-29T11:20:32.668Z,6.68
2022-10-29T11:23:06.047Z,5.60
2022-10-29T11:25:40.731Z,5.93
2022-10-29T11:28:21.909Z,5.20
2022-10-29T11:31:12.305Z,5.68
2022-10-29T11:33:45.410Z,5.40
2022-10-29T11:36:18.694Z,6.15
2022-10-29T11:38:58.709Z,5.90
2022-10-29T11:41:38.821Z,6.53
2022-10-29T11:44:10.657Z,5.47
2022-10-29T11:46:37.871Z,5.07
2022-10-29T11:49:08.396Z,5.75
2022-10-29T11:51:35.692Z,4.60
2022-10-29T11:54:05.800Z,4.45
2022-10-29T11:56:53.470Z,5.05
2022-10-29T11:59:25.549Z,5.10
2022-10-29T12:02:11.188Z,5.15
2022-10-29T12:05:10.662Z,5.25
2022-10-29T12:07:48.393Z,4.90
2022-10-29T12:10:27.787Z,5.18
2022-10-29T12:13:03.537Z,5.00
2022-10-29T12:15:39.897Z,5.20
2022-10-29T12:18:14.990Z,5.25
2022-10-29T12:20:51.461Z,4.90
2022-10-29T12:23:25.118Z,4.65
2022-10-29T12:26:05.796Z,6.03
2022-10-29T12:28:36.213Z,4.68
2022-10-29T12:34:06.193Z,5.28
2022-10-29T12:36:41.335Z,4.30
2022-10-29T12:39:15.201Z,4.28
2022-10-29T12:41:44.793Z,4.38
2022-10-29T12:44:19.591Z,4.37
2022-10-29T12:46:55.235Z,4.25
2022-10-29T12:49:37.384Z,4.45
2022-10-29T12:52:14.075Z,4.70
2022-10-29T12:54:43.579Z,4.72
2022-10-29T12:57:13.568Z,4.63
2022-10-29T12:59:42.015Z,4.57
2022-10-29T13:02:28.226Z,4.13
2022-10-29T13:05:09.881Z,4.80
2022-10-29T13:07:46.468Z,4.72
2022-10-29T13:10:27.052Z,4.05
2022-10-29T13:12:57.468Z,5.50
2022-10-29T13:17:53.240Z,4.78
2022-10-29T13:20:21.497Z,4.85
2022-10-29T13:22:48.821Z,4.88
2022-10-29T13:25:34.336Z,4.82
2022-10-29T13:28:02.038Z,4.70
2022-10-29T13:30:29.815Z,4.47
2022-10-29T13:32:57.722Z,5.00
2022-10-29T13:35:28.231Z,4.45
2022-10-29T13:37:56.331Z,4.70
2022-10-29T13:40:23.644Z,3.97
2022-10-29T13:42:56.477Z,4.47
2022-10-29T13:45:25.018Z,4.20
2022-10-29T13:47:52.522Z,4.43
2022-10-29T13:50:20.393Z,5.10
2022-10-29T13:52:51.355Z,4.72
2022-10-29T13:55:20.207Z,4.93
2022-10-29T13:57:55.173Z,4.20
2022-10-29T14:00:23.264Z,4.68
2022-10-29T14:03:26.255Z,4.53
2022-10-29T14:06:06.993Z,5.22
2022-10-29T14:08:53.288Z,4.60
2022-10-29T14:11:25.047Z,4.97
2022-10-29T14:13:54.135Z,5.00
2022-10-29T14:16:33.748Z,4.22
2022-10-29T14:19:21.148Z,4.63
2022-10-29T14:21:51.662Z,5.15
2022-10-29T14:24:19.009Z,6.07
2022-10-29T14:26:47.768Z,4.07
2022-10-29T14:29:18.705Z,4.82
2022-10-29T14:31:46.374Z,4.70
2022-10-29T14:34:27.763Z,4.47
2022-10-29T14:36:59.827Z,4.80
2022-10-29T14:39:48.358Z,4.20
2022-10-29T14:42:24.665Z,4.60
2022-10-29T14:44:56.935Z,5.00
2022-10-29T14:47:30.397Z,4.53
2022-10-29T14:50:02.904Z,4.72
2022-10-29T14:52:30.737Z,4.28
2022-10-29T14:55:00.687Z,4.28
2022-10-29T14:57:30.667Z,4.68
2022-10-29T15:00:02.417Z,4.53
2022-10-29T15:02:38.751Z,5.55
2022-10-29T15:05:25.103Z,4.40
2022-10-29T15:08:04.817Z,4.38
2022-10-29T15:10:33.601Z,4.50
2022-10-29T15:13:20.006Z,4.50
2022-10-29T15:16:02.303Z,4.70
2022-10-29T15:18:31.709Z,4.13
2022-10-29T15:21:00.594Z,4.55
2022-10-29T15:23:44.462Z,3.80
2022-10-29T15:26:24.524Z,4.63
2022-10-29T15:28:55.964Z,3.97
2022-10-29T15:31:24.749Z,4.60
2022-10-29T15:33:52.899Z,4.95
2022-10-29T15:36:20.885Z,4.40
2022-10-29T15:38:52.265Z,4.22
2022-10-29T15:41:19.875Z,5.03
2022-10-29T15:43:57.475Z,4.43
2022-10-29T15:46:26.060Z,4.22
2022-10-29T15:48:53.826Z,5.38
2022-10-29T15:51:31.033Z,4.80
2022-10-29T15:53:59.597Z,4.50
2022-10-29T15:56:26.949Z,4.22
2022-10-29T15:58:54.896Z,3.95
2022-10-29T16:01:22.548Z,5.28
2022-10-29T16:03:49.921Z,4.93
2022-10-29T16:06:17.465Z,4.85
2022-10-29T16:08:47.576Z,5.05
2022-10-29T16:11:16.146Z,4.72
2022-10-29T16:13:43.716Z,4.80
2022-10-29T16:16:18.559Z,4.82
2022-10-29T16:18:46.464Z,4.50
2022-10-29T16:21:21.532Z,4.40
2022-10-29T16:23:49.427Z,5.22
2022-10-29T16:26:18.383Z,4.72
2022-10-29T16:28:46.593Z,5.13
2022-10-29T16:31:27.405Z,4.88
2022-10-29T16:33:55.849Z,4.85
2022-10-29T16:36:23.239Z,4.57
2022-10-29T16:38:50.547Z,4.88
2022-10-29T16:41:19.844Z,5.13
2022-10-29T16:43:48.172Z,4.72
2022-10-29T16:46:16.730Z,3.88
2022-10-29T16:48:44.139Z,4.70
2022-10-29T16:51:14.474Z,4.15
2022-10-29T16:53:41.975Z,4.82
2022-10-29T16:56:09.051Z,4.80
2022-10-29T16:58:36.456Z,4.63
2022-10-29T17:01:07.387Z,4.50
2022-10-29T17:03:35.584Z,4.18
2022-10-29T17:06:06.048Z,4.45
2022-10-29T17:08:37.021Z,4.80
2022-10-29T17:13:34.286Z,4.95
2022-10-29T17:16:01.963Z,4.20
2022-10-29T17:18:29.310Z,5.57
2022-10-29T17:21:00.159Z,5.03
2022-10-29T17:25:55.773Z,4.70
2022-10-29T17:28:24.048Z,5.22
2022-10-29T17:30:51.732Z,4.85
2022-10-29T17:33:19.575Z,4.82
2022-10-29T17:35:47.243Z,4.95
2022-10-29T17:38:15.507Z,4.72
2022-10-29T17:40:46.443Z,5.30
2022-10-29T17:45:56.820Z,4.75
2022-10-29T17:48:30.751Z,4.60
2022-10-29T17:51:04.448Z,4.72
2022-10-29T17:53:32.732Z,4.72
2022-10-29T17:56:11.876Z,4.25
2022-10-29T17:58:41.753Z,5.20
2022-10-29T18:01:12.061Z,4.20
2022-10-29T18:03:39.743Z,4.35
2022-10-29T18:06:08.427Z,5.53
2022-10-29T18:08:40.080Z,5.05
2022-10-29T18:11:07.250Z,4.40
2022-10-29T18:13:41.758Z,4.97
2022-10-29T18:16:10.726Z,4.20
2022-10-29T18:18:54.299Z,4.95
2022-10-29T18:21:27.758Z,5.18
2022-10-29T18:23:55.520Z,5.32
2022-10-29T18:26:37.954Z,5.60
2022-10-29T18:29:09.603Z,4.53
2022-10-29T18:31:40.423Z,5.30
2022-10-29T18:34:08.050Z,5.47
2022-10-29T18:36:36.123Z,4.88
2022-10-29T18:39:04.177Z,5.05
2022-10-29T18:41:31.775Z,5.35
2022-10-29T18:44:02.850Z,4.75
2022-10-29T18:48:58.867Z,5.15
2022-10-29T18:51:27.838Z,4.75
2022-10-29T18:54:00.724Z,5.07
2022-10-29T18:56:28.408Z,4.53
2022-10-29T18:58:57.381Z,4.95
2022-10-29T19:01:27.214Z,5.03
2022-10-29T19:03:56.502Z,4.70
2022-10-29T19:06:24.699Z,5.93
2022-10-29T19:08:52.109Z,4.88
2022-10-29T19:11:21.841Z,5.75
2022-10-29T19:14:01.876Z,5.30
2022-10-29T19:16:29.839Z,4.60
2022-10-29T19:18:58.500Z,5.50
2022-10-29T19:21:26.689Z,4.63
2022-10-29T19:23:55.089Z,4.60
2022-10-29T19:26:24.221Z,5.43
2022-10-29T19:28:54.592Z,4.90
2022-10-29T19:31:24.526Z,5.85
2022-10-29T19:33:52.780Z,5.95
2022-10-29T19:36:21.818Z,5.70
2022-10-29T19:38:51.585Z,5.43
2022-10-29T19:41:19.057Z,5.28
2022-10-29T19:43:46.902Z,6.40
2022-10-29T19:46:15.788Z,5.43
2022-10-29T19:48:44.170Z,5.75
2022-10-29T19:51:11.724Z,5.05
2022-10-29T19:53:39.815Z,5.15
2022-10-29T19:56:08.601Z,5.57
2022-10-29T19:58:36.448Z,5.53
2022-10-29T20:01:05.951Z,4.93
2022-10-29T20:03:33.610Z,5.00
2022-10-29T20:06:15.521Z,4.57
2022-10-29T20:08:48.511Z,4.43
2022-10-29T20:11:16.150Z,5.07
2022-10-29T20:13:43.711Z,4.82
2022-10-29T20:16:14.860Z,5.70
2022-10-29T20:18:42.015Z,4.78
2022-10-29T20:21:09.897Z,5.05
2022-10-29T20:23:37.239Z,5.25
2022-10-29T20:26:05.098Z,5.93
2022-10-29T20:28:34.177Z,5.13
2022-10-29T20:31:21.101Z,5.15
2022-10-29T20:33:55.408Z,5.68
2022-10-29T20:36:24.712Z,5.20
2022-10-29T20:38:52.796Z,4.97
2022-10-29T20:41:20.429Z,5.47
2022-10-29T20:43:52.922Z,5.72
2022-10-29T20:46:20.568Z,5.95
2022-10-29T20:48:47.893Z,5.60
2022-10-29T20:51:15.340Z,5.88
2022-10-29T20:53:42.676Z,5.43
2022-10-29T20:56:13.199Z,6.18
2022-10-29T20:58:43.475Z,5.60
2022-10-29T21:01:12.075Z,6.18
2022-10-29T21:03:39.611Z,5.15
2022-10-29T21:06:12.516Z,5.38
2022-10-29T21:08:44.097Z,6.10
2022-10-29T21:11:12.130Z,5.82
2022-10-29T21:13:39.425Z,5.55
2022-10-29T21:16:06.805Z,5.60
2022-10-29T21:18:37.967Z,5.95
2022-10-29T21:21:05.519Z,5.57
2022-10-29T21:23:32.998Z,5.28
2022-10-29T21:26:00.173Z,5.40
2022-10-29T21:28:27.481Z,5.40
2022-10-29T21:30:54.917Z,6.95
2022-10-29T21:33:22.026Z,5.90
2022-10-29T21:35:55.871Z,5.93
2022-10-29T21:38:23.753Z,6.07
2022-10-29T21:40:51.371Z,6.07
2022-10-29T21:43:21.840Z,6.28
2022-10-29T21:45:49.959Z,6.00
2022-10-29T21:48:17.592Z,5.93
2022-10-29T21:50:44.748Z,6.07
2022-10-29T21:53:12.251Z,6.30
2022-10-29T21:55:39.467Z,6.32
2022-10-29T21:58:07.765Z,5.35
2022-10-29T22:00:35.187Z,5.95
2022-10-29T22:03:04.566Z,5.85
2022-10-29T22:05:32.161Z,6.55
2022-10-29T22:07:59.822Z,6.20
2022-10-29T22:10:27.579Z,6.43
2022-10-29T22:12:54.756Z,6.40
2022-10-29T22:15:22.333Z,6.55
2022-10-29T22:17:49.828Z,5.70
2022-10-29T22:20:17.069Z,6.50
2022-10-29T22:22:44.459Z,6.13
2022-10-29T22:25:11.479Z,6.55
2022-10-29T22:27:38.868Z,6.13
2022-10-29T22:30:06.328Z,7.35
2022-10-29T22:32:33.720Z,6.28
2022-10-29T22:35:00.818Z,6.32
2022-10-29T22:37:28.133Z,7.45
2022-10-29T22:39:55.194Z,6.60
2022-10-29T22:42:22.614Z,6.78
2022-10-29T22:44:49.770Z,6.15
2022-10-29T22:47:17.324Z,6.45
2022-10-29T22:49:44.499Z,5.88
2022-10-29T22:52:11.852Z,6.60
2022-10-29T22:54:39.213Z,6.97
2022-10-29T22:57:06.606Z,6.38
2022-10-29T22:59:33.927Z,5.50
2022-10-29T23:02:01.667Z,5.22
2022-10-29T23:04:28.935Z,4.90
2022-10-29T23:07:01.648Z,5.65
2022-10-29T23:09:29.241Z,5.90
2022-10-29T23:11:56.337Z,5.15
2022-10-29T23:14:23.992Z,5.18
2022-10-29T23:16:51.105Z,5.45
2022-10-29T23:19:18.723Z,5.13
2022-10-29T23:21:46.034Z,5.75
2022-10-29T23:24:13.650Z,5.47
2022-10-29T23:26:41.068Z,5.60
2022-10-29T23:29:08.456Z,5.43
2022-10-29T23:31:35.917Z,5.18
2022-10-29T23:34:03.122Z,5.93
2022-10-29T23:36:30.548Z,5.45
2022-10-29T23:38:58.443Z,5.90
2022-10-29T23:41:27.386Z,5.82
2022-10-29T23:43:55.031Z,5.72
2022-10-29T23:46:22.710Z,5.75
2022-10-29T23:48:50.337Z,5.85
2022-10-29T23:51:17.726Z,5.85
2022-10-29T23:53:44.924Z,5.53
2022-10-29T23:56:13.049Z,5.82
2022-10-29T23:58:40.121Z,6.10
